sensor_id;sensor_type;location;lat;lon;timestamp;temperature;humidity
5960;DHT22;3006;50.956;7.002;2023-04-01T00:00:51;12.10;99.90
5960;DHT22;3006;50.956;7.002;2023-04-01T00:03:20;12.20;99.90
5960;DHT22;3006;50.956;7.002;2023-04-01T00:05:49;12.20;99.90
5960;DHT22;3006;50.956;7.002;2023-04-01T00:08:17;12.20;99.90
5960;DHT22;3006;50.956;7.002;2023-04-01T00:10:45;12.20;99.90
5960;DHT22;3006;50.956;7.002;2023-04-01T00:13:14;12.20;99.90
5960;DHT22;3006;50.956;7.002;2023-04-01T00:15:42;12.20;99.90
5960;DHT22;3006;50.956;7.002;2023-04-01T00:18:12;12.20;99.90
5960;DHT22;3006;50.956;7.002;2023-04-01T00:20:44;12.20;99.90
5960;DHT22;3006;50.956;7.002;2023-04-01T00:23:12;12.10;99.90
5960;DHT22;3006;50.956;7.002;2023-04-01T00:25:40;12.20;99.90
5960;DHT22;3006;50.956;7.002;2023-04-01T00:28:08;12.10;99.90
5960;DHT22;3006;50.956;7.002;2023-04-01T00:30:36;12.20;99.90
5960;DHT22;3006;50.956;7.002;2023-04-01T00:33:05;12.20;99.90
5960;DHT22;3006;50.956;7.002;2023-04-01T00:35:34;12.10;99.90
5960;DHT22;3006;50.956;7.002;2023-04-01T00:38:04;12.10;99.90
5960;DHT22;3006;50.956;7.002;2023-04-01T00:40:35;12.20;99.90
5960;DHT22;3006;50.956;7.002;2023-04-01T00:43:10;12.20;99.90
5960;DHT22;3006;50.956;7.002;2023-04-01T00:45:40;12.20;99.90
5960;DHT22;3006;50.956;7.002;2023-04-01T00:48:11;12.20;99.90
5960;DHT22;3006;50.956;7.002;2023-04-01T00:50:44;12.20;99.90
5960;DHT22;3006;50.956;7.002;2023-04-01T00:53:14;12.10;99.90
5960;DHT22;3006;50.956;7.002;2023-04-01T00:55:47;12.20;99.90
5960;DHT22;3006;50.956;7.002;2023-04-01T00:58:18;12.20;99.90
5960;DHT22;3006;50.956;7.002;2023-04-01T01:00:50;12.20;99.90
5960;DHT22;3006;50.956;7.002;2023-04-01T01:03:18;12.10;99.90
5960;DHT22;3006;50.956;7.002;2023-04-01T01:08:56;12.10;99.90
5960;DHT22;3006;50.956;7.002;2023-04-01T01:11:33;12.10;99.90
5960;DHT22;3006;50.956;7.002;2023-04-01T01:14:18;12.10;99.90
5960;DHT22;3006;50.956;7.002;2023-04-01T01:16:53;12.10;99.90
5960;DHT22;3006;50.956;7.002;2023-04-01T01:22:49;12.20;99.90
5960;DHT22;3006;50.956;7.002;2023-04-01T01:25:31;12.20;99.90
5960;DHT22;3006;50.956;7.002;2023-04-01T01:30:57;12.10;99.90
5960;DHT22;3006;50.956;7.002;2023-04-01T01:33:47;12.20;99.90
5960;DHT22;3006;50.956;7.002;2023-04-01T01:36:19;12.20;99.90
5960;DHT22;3006;50.956;7.002;2023-04-01T01:38:48;12.10;99.90
5960;DHT22;3006;50.956;7.002;2023-04-01T01:41:19;12.20;99.90
5960;DHT22;3006;50.956;7.002;2023-04-01T01:43:50;12.20;99.90
5960;DHT22;3006;50.956;7.002;2023-04-01T01:46:23;12.20;99.90
5960;DHT22;3006;50.956;7.002;2023-04-01T01:48:53;12.20;99.90
5960;DHT22;3006;50.956;7.002;2023-04-01T01:51:23;12.20;99.90
5960;DHT22;3006;50.956;7.002;2023-04-01T01:53:52;12.10;99.90
5960;DHT22;3006;50.956;7.002;2023-04-01T01:56:23;12.10;99.90
5960;DHT22;3006;50.956;7.002;2023-04-01T01:58:56;12.10;99.90
5960;DHT22;3006;50.956;7.002;2023-04-01T02:01:29;12.10;99.90
5960;DHT22;3006;50.956;7.002;2023-04-01T02:04:06;12.00;99.90
5960;DHT22;3006;50.956;7.002;2023-04-01T02:06:39;12.00;99.90
5960;DHT22;3006;50.956;7.002;2023-04-01T02:09:10;12.00;99.90
5960;DHT22;3006;50.956;7.002;2023-04-01T02:11:43;11.90;99.90
5960;DHT22;3006;50.956;7.002;2023-04-01T02:14:16;11.90;99.90
5960;DHT22;3006;50.956;7.002;2023-04-01T02:16:50;11.90;99.90
5960;DHT22;3006;50.956;7.002;2023-04-01T02:19:22;11.80;99.90
5960;DHT22;3006;50.956;7.002;2023-04-01T02:21:57;11.80;99.90
5960;DHT22;3006;50.956;7.002;2023-04-01T02:24:28;11.80;99.90
5960;DHT22;3006;50.956;7.002;2023-04-01T02:26:58;11.70;99.90
5960;DHT22;3006;50.956;7.002;2023-04-01T02:29:27;11.70;99.90
5960;DHT22;3006;50.956;7.002;2023-04-01T02:31:56;11.70;99.90
5960;DHT22;3006;50.956;7.002;2023-04-01T02:34:24;11.60;99.90
5960;DHT22;3006;50.956;7.002;2023-04-01T02:36:55;11.60;99.90
5960;DHT22;3006;50.956;7.002;2023-04-01T02:39:23;11.60;99.90
5960;DHT22;3006;50.956;7.002;2023-04-01T02:41:52;11.50;99.90
5960;DHT22;3006;50.956;7.002;2023-04-01T02:44:20;11.50;99.90
5960;DHT22;3006;50.956;7.002;2023-04-01T02:46:48;11.50;99.90
5960;DHT22;3006;50.956;7.002;2023-04-01T02:49:16;11.40;99.90
5960;DHT22;3006;50.956;7.002;2023-04-01T02:51:45;11.40;99.90
5960;DHT22;3006;50.956;7.002;2023-04-01T02:54:14;11.40;99.90
5960;DHT22;3006;50.956;7.002;2023-04-01T02:56:43;11.30;99.90
5960;DHT22;3006;50.956;7.002;2023-04-01T02:59:12;11.30;99.90
5960;DHT22;3006;50.956;7.002;2023-04-01T03:01:40;11.40;99.90
5960;DHT22;3006;50.956;7.002;2023-04-01T03:04:08;11.30;99.90
5960;DHT22;3006;50.956;7.002;2023-04-01T03:06:36;11.30;99.90
5960;DHT22;3006;50.956;7.002;2023-04-01T03:09:04;11.30;99.90
5960;DHT22;3006;50.956;7.002;2023-04-01T03:11:33;11.20;99.90
5960;DHT22;3006;50.956;7.002;2023-04-01T03:14:02;11.30;99.90
5960;DHT22;3006;50.956;7.002;2023-04-01T03:16:30;11.30;99.90
5960;DHT22;3006;50.956;7.002;2023-04-01T03:18:58;11.30;99.90
5960;DHT22;3006;50.956;7.002;2023-04-01T03:21:28;11.30;99.90
5960;DHT22;3006;50.956;7.002;2023-04-01T03:23:56;11.30;99.90
5960;DHT22;3006;50.956;7.002;2023-04-01T03:26:25;11.40;99.90
5960;DHT22;3006;50.956;7.002;2023-04-01T03:28:56;11.40;99.90
5960;DHT22;3006;50.956;7.002;2023-04-01T03:31:24;11.40;99.90
5960;DHT22;3006;50.956;7.002;2023-04-01T03:33:55;11.40;99.90
5960;DHT22;3006;50.956;7.002;2023-04-01T03:36:23;11.40;99.90
5960;DHT22;3006;50.956;7.002;2023-04-01T03:38:52;11.50;99.90
5960;DHT22;3006;50.956;7.002;2023-04-01T03:41:30;11.50;99.90
5960;DHT22;3006;50.956;7.002;2023-04-01T03:44:00;11.50;99.90
5960;DHT22;3006;50.956;7.002;2023-04-01T03:46:28;11.50;99.90
5960;DHT22;3006;50.956;7.002;2023-04-01T03:48:56;11.40;99.90
5960;DHT22;3006;50.956;7.002;2023-04-01T03:51:24;11.40;99.90
5960;DHT22;3006;50.956;7.002;2023-04-01T03:53:52;11.40;99.90
5960;DHT22;3006;50.956;7.002;2023-04-01T03:56:20;11.40;99.90
5960;DHT22;3006;50.956;7.002;2023-04-01T03:58:49;11.40;99.90
5960;DHT22;3006;50.956;7.002;2023-04-01T04:01:21;11.50;99.90
5960;DHT22;3006;50.956;7.002;2023-04-01T04:03:52;11.50;99.90
5960;DHT22;3006;50.956;7.002;2023-04-01T04:06:22;11.50;99.90
5960;DHT22;3006;50.956;7.002;2023-04-01T04:08:52;11.50;99.90
5960;DHT22;3006;50.956;7.002;2023-04-01T04:11:21;11.60;99.90
5960;DHT22;3006;50.956;7.002;2023-04-01T04:13:51;11.60;99.90
5960;DHT22;3006;50.956;7.002;2023-04-01T04:16:23;11.60;99.90
5960;DHT22;3006;50.956;7.002;2023-04-01T04:19:01;11.60;99.90
5960;DHT22;3006;50.956;7.002;2023-04-01T04:21:29;11.60;99.90
5960;DHT22;3006;50.956;7.002;2023-04-01T04:23:58;11.60;99.90
5960;DHT22;3006;50.956;7.002;2023-04-01T04:26:28;11.60;99.90
5960;DHT22;3006;50.956;7.002;2023-04-01T04:28:59;11.60;99.90
5960;DHT22;3006;50.956;7.002;2023-04-01T04:31:29;11.60;99.90
5960;DHT22;3006;50.956;7.002;2023-04-01T04:33:59;11.60;99.90
5960;DHT22;3006;50.956;7.002;2023-04-01T04:36:31;11.60;99.90
5960;DHT22;3006;50.956;7.002;2023-04-01T04:38:59;11.60;99.90
5960;DHT22;3006;50.956;7.002;2023-04-01T04:41:31;11.60;99.90
5960;DHT22;3006;50.956;7.002;2023-04-01T04:44:01;11.60;99.90
5960;DHT22;3006;50.956;7.002;2023-04-01T04:46:31;11.60;99.90
5960;DHT22;3006;50.956;7.002;2023-04-01T04:49:09;11.60;99.90
5960;DHT22;3006;50.956;7.002;2023-04-01T04:51:37;11.50;99.90
5960;DHT22;3006;50.956;7.002;2023-04-01T04:54:06;11.50;99.90
5960;DHT22;3006;50.956;7.002;2023-04-01T04:57:03;11.50;99.90
5960;DHT22;3006;50.956;7.002;2023-04-01T04:59:38;11.50;99.90
5960;DHT22;3006;50.956;7.002;2023-04-01T05:02:14;11.50;99.90
5960;DHT22;3006;50.956;7.002;2023-04-01T05:04:42;11.50;99.90
5960;DHT22;3006;50.956;7.002;2023-04-01T05:07:10;11.50;99.90
5960;DHT22;3006;50.956;7.002;2023-04-01T05:09:39;11.40;99.90
5960;DHT22;3006;50.956;7.002;2023-04-01T05:12:07;11.40;99.90
5960;DHT22;3006;50.956;7.002;2023-04-01T05:14:54;11.40;99.90
5960;DHT22;3006;50.956;7.002;2023-04-01T05:17:23;11.40;99.90
5960;DHT22;3006;50.956;7.002;2023-04-01T05:19:51;11.40;99.90
5960;DHT22;3006;50.956;7.002;2023-04-01T05:22:20;11.40;99.90
5960;DHT22;3006;50.956;7.002;2023-04-01T05:24:48;11.40;99.90
5960;DHT22;3006;50.956;7.002;2023-04-01T05:27:16;11.40;99.90
5960;DHT22;3006;50.956;7.002;2023-04-01T05:29:44;11.40;99.90
5960;DHT22;3006;50.956;7.002;2023-04-01T05:32:34;11.40;99.90
5960;DHT22;3006;50.956;7.002;2023-04-01T05:35:02;11.40;99.90
5960;DHT22;3006;50.956;7.002;2023-04-01T05:37:30;11.40;99.90
5960;DHT22;3006;50.956;7.002;2023-04-01T05:39:58;11.40;99.90
5960;DHT22;3006;50.956;7.002;2023-04-01T05:42:28;11.40;99.90
5960;DHT22;3006;50.956;7.002;2023-04-01T05:44:56;11.40;99.90
5960;DHT22;3006;50.956;7.002;2023-04-01T05:47:44;11.40;99.90
5960;DHT22;3006;50.956;7.002;2023-04-01T05:50:12;11.40;99.90
5960;DHT22;3006;50.956;7.002;2023-04-01T05:52:40;11.40;99.90
5960;DHT22;3006;50.956;7.002;2023-04-01T05:55:09;11.40;99.90
5960;DHT22;3006;50.956;7.002;2023-04-01T05:57:37;11.40;99.90
5960;DHT22;3006;50.956;7.002;2023-04-01T06:00:07;11.40;99.90
5960;DHT22;3006;50.956;7.002;2023-04-01T06:02:40;11.40;99.90
5960;DHT22;3006;50.956;7.002;2023-04-01T06:05:17;11.40;99.90
5960;DHT22;3006;50.956;7.002;2023-04-01T06:07:45;11.40;99.90
5960;DHT22;3006;50.956;7.002;2023-04-01T06:10:15;11.40;99.90
5960;DHT22;3006;50.956;7.002;2023-04-01T06:12:53;11.40;99.90
5960;DHT22;3006;50.956;7.002;2023-04-01T06:15:38;11.30;99.90
5960;DHT22;3006;50.956;7.002;2023-04-01T06:18:38;11.20;99.90
5960;DHT22;3006;50.956;7.002;2023-04-01T06:21:19;11.20;99.90
5960;DHT22;3006;50.956;7.002;2023-04-01T06:24:10;11.20;99.90
5960;DHT22;3006;50.956;7.002;2023-04-01T06:26:48;11.30;99.90
5960;DHT22;3006;50.956;7.002;2023-04-01T06:29:35;11.40;99.90
5960;DHT22;3006;50.956;7.002;2023-04-01T06:32:32;11.40;99.90
5960;DHT22;3006;50.956;7.002;2023-04-01T06:35:31;11.50;99.90
5960;DHT22;3006;50.956;7.002;2023-04-01T06:38:17;11.50;99.90
5960;DHT22;3006;50.956;7.002;2023-04-01T06:41:06;11.40;99.90
5960;DHT22;3006;50.956;7.002;2023-04-01T06:43:46;11.50;99.90
5960;DHT22;3006;50.956;7.002;2023-04-01T06:46:23;11.40;99.90
5960;DHT22;3006;50.956;7.002;2023-04-01T06:49:39;11.40;99.90
5960;DHT22;3006;50.956;7.002;2023-04-01T06:52:34;11.40;99.90
5960;DHT22;3006;50.956;7.002;2023-04-01T06:55:38;11.40;99.90
5960;DHT22;3006;50.956;7.002;2023-04-01T06:58:16;11.50;99.90
5960;DHT22;3006;50.956;7.002;2023-04-01T07:00:49;11.50;99.90
5960;DHT22;3006;50.956;7.002;2023-04-01T07:03:23;11.50;99.90
5960;DHT22;3006;50.956;7.002;2023-04-01T07:05:59;11.60;99.90
5960;DHT22;3006;50.956;7.002;2023-04-01T07:08:33;11.60;99.90
5960;DHT22;3006;50.956;7.002;2023-04-01T07:11:05;11.60;99.90
5960;DHT22;3006;50.956;7.002;2023-04-01T07:13:55;11.60;99.90
5960;DHT22;3006;50.956;7.002;2023-04-01T07:16:30;11.60;99.90
5960;DHT22;3006;50.956;7.002;2023-04-01T07:19:02;11.60;99.90
5960;DHT22;3006;50.956;7.002;2023-04-01T07:21:55;11.60;99.90
5960;DHT22;3006;50.956;7.002;2023-04-01T07:24:37;11.60;99.90
5960;DHT22;3006;50.956;7.002;2023-04-01T07:27:11;11.60;99.90
5960;DHT22;3006;50.956;7.002;2023-04-01T07:29:41;11.60;99.90
5960;DHT22;3006;50.956;7.002;2023-04-01T07:32:19;11.60;99.90
5960;DHT22;3006;50.956;7.002;2023-04-01T07:34:56;11.60;99.90
5960;DHT22;3006;50.956;7.002;2023-04-01T07:37:32;11.60;99.90
5960;DHT22;3006;50.956;7.002;2023-04-01T07:40:15;11.60;99.90
5960;DHT22;3006;50.956;7.002;2023-04-01T07:42:57;11.50;99.90
5960;DHT22;3006;50.956;7.002;2023-04-01T07:45:32;11.50;99.90
5960;DHT22;3006;50.956;7.002;2023-04-01T07:48:15;11.50;99.90
5960;DHT22;3006;50.956;7.002;2023-04-01T07:50:50;11.50;99.90
5960;DHT22;3006;50.956;7.002;2023-04-01T07:53:27;11.50;99.90
5960;DHT22;3006;50.956;7.002;2023-04-01T07:56:05;11.50;99.90
5960;DHT22;3006;50.956;7.002;2023-04-01T07:58:46;11.50;99.90
5960;DHT22;3006;50.956;7.002;2023-04-01T08:01:40;11.50;99.90
5960;DHT22;3006;50.956;7.002;2023-04-01T08:04:25;11.50;99.90
5960;DHT22;3006;50.956;7.002;2023-04-01T08:07:00;11.50;99.90
5960;DHT22;3006;50.956;7.002;2023-04-01T08:09:37;11.50;99.90
5960;DHT22;3006;50.956;7.002;2023-04-01T08:12:44;11.50;99.90
5960;DHT22;3006;50.956;7.002;2023-04-01T08:15:40;11.60;99.90
5960;DHT22;3006;50.956;7.002;2023-04-01T08:18:28;11.60;99.90
5960;DHT22;3006;50.956;7.002;2023-04-01T08:21:01;11.60;99.90
5960;DHT22;3006;50.956;7.002;2023-04-01T08:23:32;11.60;99.90
5960;DHT22;3006;50.956;7.002;2023-04-01T08:26:04;11.60;99.90
5960;DHT22;3006;50.956;7.002;2023-04-01T08:28:41;11.60;99.90
5960;DHT22;3006;50.956;7.002;2023-04-01T08:31:17;11.60;99.90
5960;DHT22;3006;50.956;7.002;2023-04-01T08:33:47;11.60;99.90
5960;DHT22;3006;50.956;7.002;2023-04-01T08:36:19;11.60;99.90
5960;DHT22;3006;50.956;7.002;2023-04-01T08:39:02;11.60;99.90
5960;DHT22;3006;50.956;7.002;2023-04-01T08:45:11;11.60;99.90
5960;DHT22;3006;50.956;7.002;2023-04-01T08:48:29;11.60;99.90
5960;DHT22;3006;50.956;7.002;2023-04-01T08:54:19;11.60;99.90
5960;DHT22;3006;50.956;7.002;2023-04-01T08:56:59;11.70;99.90
5960;DHT22;3006;50.956;7.002;2023-04-01T08:59:47;11.60;99.90
5960;DHT22;3006;50.956;7.002;2023-04-01T09:03:00;11.70;99.90
5960;DHT22;3006;50.956;7.002;2023-04-01T09:05:46;11.70;99.90
5960;DHT22;3006;50.956;7.002;2023-04-01T09:08:25;11.70;99.90
5960;DHT22;3006;50.956;7.002;2023-04-01T09:11:02;11.70;99.90
5960;DHT22;3006;50.956;7.002;2023-04-01T09:17:38;11.60;99.90
5960;DHT22;3006;50.956;7.002;2023-04-01T09:20:27;11.70;99.90
5960;DHT22;3006;50.956;7.002;2023-04-01T09:23:23;11.70;99.90
5960;DHT22;3006;50.956;7.002;2023-04-01T09:26:01;11.80;99.90
5960;DHT22;3006;50.956;7.002;2023-04-01T09:28:37;11.80;99.90
5960;DHT22;3006;50.956;7.002;2023-04-01T09:31:21;11.70;99.90
5960;DHT22;3006;50.956;7.002;2023-04-01T09:34:36;11.60;99.90
5960;DHT22;3006;50.956;7.002;2023-04-01T09:37:18;11.60;99.90
5960;DHT22;3006;50.956;7.002;2023-04-01T09:40:09;11.70;99.90
5960;DHT22;3006;50.956;7.002;2023-04-01T09:42:43;11.80;99.90
5960;DHT22;3006;50.956;7.002;2023-04-01T09:45:33;11.80;99.90
5960;DHT22;3006;50.956;7.002;2023-04-01T09:48:14;11.70;99.90
5960;DHT22;3006;50.956;7.002;2023-04-01T09:50:50;11.70;99.90
5960;DHT22;3006;50.956;7.002;2023-04-01T09:53:36;11.70;99.90
5960;DHT22;3006;50.956;7.002;2023-04-01T09:56:49;11.70;99.90
5960;DHT22;3006;50.956;7.002;2023-04-01T09:59:58;11.60;99.90
5960;DHT22;3006;50.956;7.002;2023-04-01T10:03:23;11.70;99.90
5960;DHT22;3006;50.956;7.002;2023-04-01T10:06:26;11.70;99.90
5960;DHT22;3006;50.956;7.002;2023-04-01T10:09:41;11.70;99.90
5960;DHT22;3006;50.956;7.002;2023-04-01T10:12:41;11.80;99.90
5960;DHT22;3006;50.956;7.002;2023-04-01T10:18:49;11.80;99.90
5960;DHT22;3006;50.956;7.002;2023-04-01T10:21:48;11.80;99.90
5960;DHT22;3006;50.956;7.002;2023-04-01T10:24:44;11.80;99.90
5960;DHT22;3006;50.956;7.002;2023-04-01T10:31:04;11.90;99.90
5960;DHT22;3006;50.956;7.002;2023-04-01T10:34:05;11.90;99.90
5960;DHT22;3006;50.956;7.002;2023-04-01T10:36:48;11.80;99.90
5960;DHT22;3006;50.956;7.002;2023-04-01T10:49:26;12.10;99.90
5960;DHT22;3006;50.956;7.002;2023-04-01T10:55:30;12.20;99.90
5960;DHT22;3006;50.956;7.002;2023-04-01T10:59:00;12.50;99.90
5960;DHT22;3006;50.956;7.002;2023-04-01T11:06:07;12.40;99.90
5960;DHT22;3006;50.956;7.002;2023-04-01T11:09:06;12.50;99.90
5960;DHT22;3006;50.956;7.002;2023-04-01T11:12:03;12.40;99.90
5960;DHT22;3006;50.956;7.002;2023-04-01T11:15:13;12.40;99.90
5960;DHT22;3006;50.956;7.002;2023-04-01T11:21:18;12.50;99.90
5960;DHT22;3006;50.956;7.002;2023-04-01T11:24:09;12.50;99.90
5960;DHT22;3006;50.956;7.002;2023-04-01T11:27:15;12.60;99.90
5960;DHT22;3006;50.956;7.002;2023-04-01T11:30:05;12.60;99.90
5960;DHT22;3006;50.956;7.002;2023-04-01T11:32:53;12.70;99.90
5960;DHT22;3006;50.956;7.002;2023-04-01T11:36:00;12.70;99.90
5960;DHT22;3006;50.956;7.002;2023-04-01T11:38:48;12.80;99.90
5960;DHT22;3006;50.956;7.002;2023-04-01T11:41:41;12.70;99.90
5960;DHT22;3006;50.956;7.002;2023-04-01T11:44:51;12.80;99.90
5960;DHT22;3006;50.956;7.002;2023-04-01T11:47:49;12.80;99.90
5960;DHT22;3006;50.956;7.002;2023-04-01T11:50:31;12.90;99.90
5960;DHT22;3006;50.956;7.002;2023-04-01T11:53:08;12.80;99.90
5960;DHT22;3006;50.956;7.002;2023-04-01T11:55:50;12.80;99.90
5960;DHT22;3006;50.956;7.002;2023-04-01T12:01:34;12.80;99.90
5960;DHT22;3006;50.956;7.002;2023-04-01T12:04:33;12.80;99.90
5960;DHT22;3006;50.956;7.002;2023-04-01T12:07:13;12.80;99.90
5960;DHT22;3006;50.956;7.002;2023-04-01T12:09:49;12.90;99.90
5960;DHT22;3006;50.956;7.002;2023-04-01T12:12:27;12.80;99.90
5960;DHT22;3006;50.956;7.002;2023-04-01T12:15:08;12.80;99.90
5960;DHT22;3006;50.956;7.002;2023-04-01T12:17:46;12.70;99.90
5960;DHT22;3006;50.956;7.002;2023-04-01T12:20:28;12.70;99.90
5960;DHT22;3006;50.956;7.002;2023-04-01T12:23:08;12.80;99.90
5960;DHT22;3006;50.956;7.002;2023-04-01T12:25:53;12.80;99.90
5960;DHT22;3006;50.956;7.002;2023-04-01T12:28:35;12.80;99.90
5960;DHT22;3006;50.956;7.002;2023-04-01T12:31:15;12.80;99.90
5960;DHT22;3006;50.956;7.002;2023-04-01T12:33:54;12.80;99.90
5960;DHT22;3006;50.956;7.002;2023-04-01T12:36:44;12.90;99.90
5960;DHT22;3006;50.956;7.002;2023-04-01T12:39:44;12.90;99.90
5960;DHT22;3006;50.956;7.002;2023-04-01T12:42:23;12.90;99.90
5960;DHT22;3006;50.956;7.002;2023-04-01T12:45:11;13.00;99.90
5960;DHT22;3006;50.956;7.002;2023-04-01T12:47:55;13.00;99.90
5960;DHT22;3006;50.956;7.002;2023-04-01T12:50:37;13.10;99.90
5960;DHT22;3006;50.956;7.002;2023-04-01T12:53:32;12.90;99.90
5960;DHT22;3006;50.956;7.002;2023-04-01T12:56:11;12.90;99.90
5960;DHT22;3006;50.956;7.002;2023-04-01T12:59:05;12.90;99.90
5960;DHT22;3006;50.956;7.002;2023-04-01T13:02:11;12.90;99.90
5960;DHT22;3006;50.956;7.002;2023-04-01T13:08:07;12.80;99.90
5960;DHT22;3006;50.956;7.002;2023-04-01T13:10:45;12.80;99.90
5960;DHT22;3006;50.956;7.002;2023-04-01T13:13:37;12.80;99.90
5960;DHT22;3006;50.956;7.002;2023-04-01T13:16:11;12.80;99.90
5960;DHT22;3006;50.956;7.002;2023-04-01T13:18:54;12.90;99.90
5960;DHT22;3006;50.956;7.002;2023-04-01T13:21:34;13.00;99.90
5960;DHT22;3006;50.956;7.002;2023-04-01T13:24:09;13.00;99.90
5960;DHT22;3006;50.956;7.002;2023-04-01T13:26:53;13.00;99.90
5960;DHT22;3006;50.956;7.002;2023-04-01T13:29:24;13.00;99.90
5960;DHT22;3006;50.956;7.002;2023-04-01T13:32:04;12.90;99.90
5960;DHT22;3006;50.956;7.002;2023-04-01T13:34:43;12.90;99.90
5960;DHT22;3006;50.956;7.002;2023-04-01T13:37:24;13.00;99.90
5960;DHT22;3006;50.956;7.002;2023-04-01T13:40:10;13.10;99.90
5960;DHT22;3006;50.956;7.002;2023-04-01T13:42:47;13.10;99.90
5960;DHT22;3006;50.956;7.002;2023-04-01T13:45:19;13.00;99.90
5960;DHT22;3006;50.956;7.002;2023-04-01T13:56:56;12.80;99.90
5960;DHT22;3006;50.956;7.002;2023-04-01T13:59:40;12.70;99.90
5960;DHT22;3006;50.956;7.002;2023-04-01T14:02:29;12.70;99.90
5960;DHT22;3006;50.956;7.002;2023-04-01T14:05:23;12.60;99.90
5960;DHT22;3006;50.956;7.002;2023-04-01T14:08:19;12.60;99.90
5960;DHT22;3006;50.956;7.002;2023-04-01T14:10:53;12.60;99.90
5960;DHT22;3006;50.956;7.002;2023-04-01T14:13:31;12.60;99.90
5960;DHT22;3006;50.956;7.002;2023-04-01T14:16:14;12.70;99.90
5960;DHT22;3006;50.956;7.002;2023-04-01T14:18:58;12.70;99.90
5960;DHT22;3006;50.956;7.002;2023-04-01T14:21:36;12.70;99.90
5960;DHT22;3006;50.956;7.002;2023-04-01T14:24:20;12.70;99.90
5960;DHT22;3006;50.956;7.002;2023-04-01T14:27:09;12.60;99.90
5960;DHT22;3006;50.956;7.002;2023-04-01T14:29:50;12.70;99.90
5960;DHT22;3006;50.956;7.002;2023-04-01T14:32:30;12.70;99.90
5960;DHT22;3006;50.956;7.002;2023-04-01T14:35:21;12.70;99.90
5960;DHT22;3006;50.956;7.002;2023-04-01T14:38:02;12.70;99.90
5960;DHT22;3006;50.956;7.002;2023-04-01T14:40:55;12.70;99.90
5960;DHT22;3006;50.956;7.002;2023-04-01T14:43:47;12.60;99.90
5960;DHT22;3006;50.956;7.002;2023-04-01T14:46:50;12.60;99.90
5960;DHT22;3006;50.956;7.002;2023-04-01T14:49:22;12.60;99.90
5960;DHT22;3006;50.956;7.002;2023-04-01T14:51:52;12.60;99.90
5960;DHT22;3006;50.956;7.002;2023-04-01T14:54:30;12.60;99.90
5960;DHT22;3006;50.956;7.002;2023-04-01T14:57:10;12.60;99.90
5960;DHT22;3006;50.956;7.002;2023-04-01T14:59:40;12.50;99.90
5960;DHT22;3006;50.956;7.002;2023-04-01T15:02:18;12.50;99.90
5960;DHT22;3006;50.956;7.002;2023-04-01T15:04:57;12.60;99.90
5960;DHT22;3006;50.956;7.002;2023-04-01T15:07:42;12.60;99.90
5960;DHT22;3006;50.956;7.002;2023-04-01T15:10:31;12.60;99.90
5960;DHT22;3006;50.956;7.002;2023-04-01T15:13:13;12.60;99.90
5960;DHT22;3006;50.956;7.002;2023-04-01T15:16:00;12.60;99.90
5960;DHT22;3006;50.956;7.002;2023-04-01T15:18:38;12.60;99.90
5960;DHT22;3006;50.956;7.002;2023-04-01T15:21:18;12.50;99.90
5960;DHT22;3006;50.956;7.002;2023-04-01T15:23:57;12.50;99.90
5960;DHT22;3006;50.956;7.002;2023-04-01T15:26:56;12.50;99.90
5960;DHT22;3006;50.956;7.002;2023-04-01T15:29:42;12.50;99.90
5960;DHT22;3006;50.956;7.002;2023-04-01T15:32:17;12.50;99.90
5960;DHT22;3006;50.956;7.002;2023-04-01T15:34:54;12.50;99.90
5960;DHT22;3006;50.956;7.002;2023-04-01T15:37:32;12.50;99.90
5960;DHT22;3006;50.956;7.002;2023-04-01T15:40:11;12.50;99.90
5960;DHT22;3006;50.956;7.002;2023-04-01T15:42:52;12.50;99.90
5960;DHT22;3006;50.956;7.002;2023-04-01T15:45:33;12.50;99.90
5960;DHT22;3006;50.956;7.002;2023-04-01T15:48:18;12.50;99.90
5960;DHT22;3006;50.956;7.002;2023-04-01T15:51:02;12.50;99.90
5960;DHT22;3006;50.956;7.002;2023-04-01T15:54:01;12.50;99.90
5960;DHT22;3006;50.956;7.002;2023-04-01T15:56:45;12.60;99.90
5960;DHT22;3006;50.956;7.002;2023-04-01T15:59:31;12.50;99.90
5960;DHT22;3006;50.956;7.002;2023-04-01T16:02:13;12.40;99.90
5960;DHT22;3006;50.956;7.002;2023-04-01T16:04:55;12.40;99.90
5960;DHT22;3006;50.956;7.002;2023-04-01T16:07:42;12.40;99.90
5960;DHT22;3006;50.956;7.002;2023-04-01T16:10:23;12.40;99.90
5960;DHT22;3006;50.956;7.002;2023-04-01T16:13:02;12.40;99.90
5960;DHT22;3006;50.956;7.002;2023-04-01T16:15:39;12.40;99.90
5960;DHT22;3006;50.956;7.002;2023-04-01T16:18:23;12.30;99.90
5960;DHT22;3006;50.956;7.002;2023-04-01T16:20:56;12.30;99.90
5960;DHT22;3006;50.956;7.002;2023-04-01T16:23:33;12.40;99.90
5960;DHT22;3006;50.956;7.002;2023-04-01T16:26:08;12.40;99.90
5960;DHT22;3006;50.956;7.002;2023-04-01T16:28:42;12.40;99.90
5960;DHT22;3006;50.956;7.002;2023-04-01T16:31:15;12.30;99.90
5960;DHT22;3006;50.956;7.002;2023-04-01T16:33:49;12.40;99.90
5960;DHT22;3006;50.956;7.002;2023-04-01T16:36:26;12.40;99.90
5960;DHT22;3006;50.956;7.002;2023-04-01T16:39:09;12.30;99.90
5960;DHT22;3006;50.956;7.002;2023-04-01T16:41:47;12.30;99.90
5960;DHT22;3006;50.956;7.002;2023-04-01T16:44:20;12.30;99.90
5960;DHT22;3006;50.956;7.002;2023-04-01T16:46:51;12.30;99.90
5960;DHT22;3006;50.956;7.002;2023-04-01T16:49:32;12.30;99.90
5960;DHT22;3006;50.956;7.002;2023-04-01T16:52:16;12.30;99.90
5960;DHT22;3006;50.956;7.002;2023-04-01T16:54:51;12.20;99.90
5960;DHT22;3006;50.956;7.002;2023-04-01T16:57:27;12.20;99.90
5960;DHT22;3006;50.956;7.002;2023-04-01T17:00:01;12.30;99.90
5960;DHT22;3006;50.956;7.002;2023-04-01T17:02:33;12.30;99.90
5960;DHT22;3006;50.956;7.002;2023-04-01T17:05:08;12.20;99.90
5960;DHT22;3006;50.956;7.002;2023-04-01T17:07:46;12.20;99.90
5960;DHT22;3006;50.956;7.002;2023-04-01T17:10:25;12.20;99.90
5960;DHT22;3006;50.956;7.002;2023-04-01T17:13:13;12.10;99.90
5960;DHT22;3006;50.956;7.002;2023-04-01T17:15:50;12.10;99.90
5960;DHT22;3006;50.956;7.002;2023-04-01T17:18:26;12.00;99.90
5960;DHT22;3006;50.956;7.002;2023-04-01T17:21:02;12.00;99.90
5960;DHT22;3006;50.956;7.002;2023-04-01T17:23:35;12.00;99.90
5960;DHT22;3006;50.956;7.002;2023-04-01T17:26:12;12.00;99.90
5960;DHT22;3006;50.956;7.002;2023-04-01T17:28:48;12.00;99.90
5960;DHT22;3006;50.956;7.002;2023-04-01T17:31:34;12.00;99.90
5960;DHT22;3006;50.956;7.002;2023-04-01T17:34:26;12.00;99.90
5960;DHT22;3006;50.956;7.002;2023-04-01T17:37:09;11.90;99.90
5960;DHT22;3006;50.956;7.002;2023-04-01T17:39:47;11.90;99.90
5960;DHT22;3006;50.956;7.002;2023-04-01T17:42:21;11.80;99.90
5960;DHT22;3006;50.956;7.002;2023-04-01T17:44:57;11.80;99.90
5960;DHT22;3006;50.956;7.002;2023-04-01T17:47:41;11.70;99.90
5960;DHT22;3006;50.956;7.002;2023-04-01T17:50:35;11.70;99.90
5960;DHT22;3006;50.956;7.002;2023-04-01T17:53:16;11.60;99.90
5960;DHT22;3006;50.956;7.002;2023-04-01T17:55:55;11.80;99.90
5960;DHT22;3006;50.956;7.002;2023-04-01T17:58:29;11.80;99.90
5960;DHT22;3006;50.956;7.002;2023-04-01T18:01:10;11.80;99.90
5960;DHT22;3006;50.956;7.002;2023-04-01T18:03:56;11.70;99.90
5960;DHT22;3006;50.956;7.002;2023-04-01T18:06:33;11.70;99.90
5960;DHT22;3006;50.956;7.002;2023-04-01T18:09:14;11.70;99.90
5960;DHT22;3006;50.956;7.002;2023-04-01T18:11:53;11.60;99.90
5960;DHT22;3006;50.956;7.002;2023-04-01T18:14:43;11.60;99.90
5960;DHT22;3006;50.956;7.002;2023-04-01T18:17:25;11.60;99.90
5960;DHT22;3006;50.956;7.002;2023-04-01T18:20:27;11.60;99.90
5960;DHT22;3006;50.956;7.002;2023-04-01T18:22:59;11.60;99.90